sensor_id;sensor_type;location;lat;lon;timestamp;pressure;altitude;pressure_sealevel;temperature;humidity
30516;BME280;17297;54.022;10.760;2023-01-28T00:00:07;102898.50;;;5.48;63.61
30516;BME280;17297;54.022;10.760;2023-01-28T00:02:34;102902.06;;;5.48;63.42
30516;BME280;17297;54.022;10.760;2023-01-28T00:04:59;102898.50;;;5.48;63.53
30516;BME280;17297;54.022;10.760;2023-01-28T00:07:25;102898.50;;;5.48;63.53
30516;BME280;17297;54.022;10.760;2023-01-28T00:09:50;102903.84;;;5.48;63.71
30516;BME280;17297;54.022;10.760;2023-01-28T00:12:16;102901.16;;;5.48;63.45
30516;BME280;17297;54.022;10.760;2023-01-28T00:14:41;102896.94;;;5.45;63.55
30516;BME280;17297;54.022;10.760;2023-01-28T00:17:06;102901.28;;;5.46;63.48
30516;BME280;17297;54.022;10.760;2023-01-28T00:19:32;102891.47;;;5.47;63.44
30516;BME280;17297;54.022;10.760;2023-01-28T00:21:57;102897.78;;;5.46;63.44
30516;BME280;17297;54.022;10.760;2023-01-28T00:24:22;102893.28;;;5.46;63.43
30516;BME280;17297;54.022;10.760;2023-01-28T00:26:48;102894.25;;;5.45;63.27
30516;BME280;17297;54.022;10.760;2023-01-28T00:29:13;102896.94;;;5.45;63.50
30516;BME280;17297;54.022;10.760;2023-01-28T00:31:38;102893.38;;;5.45;63.56
30516;BME280;17297;54.022;10.760;2023-01-28T00:34:05;102897.88;;;5.44;63.56
30516;BME280;17297;54.022;10.760;2023-01-28T00:36:31;102900.53;;;5.44;63.47
30516;BME280;17297;54.022;10.760;2023-01-28T00:38:57;102902.34;;;5.44;63.43
30516;BME280;17297;54.022;10.760;2023-01-28T00:41:25;102906.00;;;5.43;63.47
30516;BME280;17297;54.022;10.760;2023-01-28T00:43:51;102898.00;;;5.43;63.52
30516;BME280;17297;54.022;10.760;2023-01-28T00:46:18;102897.16;;;5.42;63.34
30516;BME280;17297;54.022;10.760;2023-01-28T00:48:44;102899.81;;;5.42;63.45
30516;BME280;17297;54.022;10.760;2023-01-28T00:51:13;102900.75;;;5.41;63.43
30516;BME280;17297;54.022;10.760;2023-01-28T00:53:38;102893.59;;;5.42;63.51
30516;BME280;17297;54.022;10.760;2023-01-28T00:56:06;102898.09;;;5.41;63.66
30516;BME280;17297;54.022;10.760;2023-01-28T00:58:32;102898.94;;;5.42;63.34
30516;BME280;17297;54.022;10.760;2023-01-28T01:03:34;102898.94;;;5.42;63.48
30516;BME280;17297;54.022;10.760;2023-01-28T01:05:59;102904.41;;;5.40;63.66
30516;BME280;17297;54.022;10.760;2023-01-28T01:08:25;102908.75;;;5.41;63.52
30516;BME280;17297;54.022;10.760;2023-01-28T01:11:03;102900.88;;;5.40;63.48
30516;BME280;17297;54.022;10.760;2023-01-28T01:13:30;102900.97;;;5.38;63.50
30516;BME280;17297;54.022;10.760;2023-01-28T01:16:01;102903.75;;;5.37;63.51
30516;BME280;17297;54.022;10.760;2023-01-28T01:18:26;102905.56;;;5.36;63.52
30516;BME280;17297;54.022;10.760;2023-01-28T01:20:52;102907.47;;;5.34;63.34
30516;BME280;17297;54.022;10.760;2023-01-28T01:23:24;102903.22;;;5.31;63.41
30516;BME280;17297;54.022;10.760;2023-01-28T01:25:49;102899.69;;;5.31;63.40
30516;BME280;17297;54.022;10.760;2023-01-28T01:28:16;102910.38;;;5.31;63.51
30516;BME280;17297;54.022;10.760;2023-01-28T01:30:41;102900.44;;;5.33;63.59
30516;BME280;17297;54.022;10.760;2023-01-28T01:33:07;102893.16;;;5.35;63.68
30516;BME280;17297;54.022;10.760;2023-01-28T01:35:32;102894.78;;;5.38;63.66
30516;BME280;17297;54.022;10.760;2023-01-28T01:37:57;102888.59;;;5.37;63.61
30516;BME280;17297;54.022;10.760;2023-01-28T01:40:23;102887.75;;;5.37;63.39
30516;BME280;17297;54.022;10.760;2023-01-28T01:42:48;102895.00;;;5.35;63.44
30516;BME280;17297;54.022;10.760;2023-01-28T01:45:13;102891.47;;;5.34;63.58
30516;BME280;17297;54.022;10.760;2023-01-28T01:47:57;102886.22;;;5.32;63.57
30516;BME280;17297;54.022;10.760;2023-01-28T01:52:54;102889.00;;;5.31;63.45
30516;BME280;17297;54.022;10.760;2023-01-28T01:55:23;102891.78;;;5.29;63.58
30516;BME280;17297;54.022;10.760;2023-01-28T01:57:51;102888.38;;;5.27;63.44
30516;BME280;17297;54.022;10.760;2023-01-28T02:00:19;102885.81;;;5.26;63.50
30516;BME280;17297;54.022;10.760;2023-01-28T02:02:47;102879.72;;;5.24;63.41
30516;BME280;17297;54.022;10.760;2023-01-28T02:05:16;102894.00;;;5.23;63.42
30516;BME280;17297;54.022;10.760;2023-01-28T02:07:44;102896.91;;;5.20;63.54
30516;BME280;17297;54.022;10.760;2023-01-28T02:10:11;102883.69;;;5.18;63.39
30516;BME280;17297;54.022;10.760;2023-01-28T02:12:41;102880.25;;;5.16;63.65
30516;BME280;17297;54.022;10.760;2023-01-28T02:15:10;102879.53;;;5.14;63.52
30516;BME280;17297;54.022;10.760;2023-01-28T02:17:37;102884.94;;;5.13;63.39
30516;BME280;17297;54.022;10.760;2023-01-28T02:20:09;102882.50;;;5.09;63.48
30516;BME280;17297;54.022;10.760;2023-01-28T02:25:56;102878.41;;;5.04;63.52
30516;BME280;17297;54.022;10.760;2023-01-28T02:31:16;102872.66;;;4.97;63.38
30516;BME280;17297;54.022;10.760;2023-01-28T02:39:12;102879.56;;;4.87;63.35
30516;BME280;17297;54.022;10.760;2023-01-28T02:42:03;102885.97;;;4.84;63.59
30516;BME280;17297;54.022;10.760;2023-01-28T02:44:32;102875.50;;;4.81;63.24
30516;BME280;17297;54.022;10.760;2023-01-28T02:46:57;102870.38;;;4.78;63.40
30516;BME280;17297;54.022;10.760;2023-01-28T02:49:45;102872.28;;;4.76;63.32
30516;BME280;17297;54.022;10.760;2023-01-28T02:55:45;102867.47;;;4.69;63.46
30516;BME280;17297;54.022;10.760;2023-01-28T02:58:33;102863.19;;;4.66;63.26
30516;BME280;17297;54.022;10.760;2023-01-28T03:01:24;102856.38;;;4.62;63.38
30516;BME280;17297;54.022;10.760;2023-01-28T03:06:21;102854.97;;;4.56;63.38
30516;BME280;17297;54.022;10.760;2023-01-28T03:08:57;102861.47;;;4.52;63.45
30516;BME280;17297;54.022;10.760;2023-01-28T03:11:50;102851.00;;;4.49;63.40
30516;BME280;17297;54.022;10.760;2023-01-28T03:14:35;102850.25;;;4.47;63.46
30516;BME280;17297;54.022;10.760;2023-01-28T03:18:22;102853.13;;;4.44;63.50
30516;BME280;17297;54.022;10.760;2023-01-28T03:21:06;102848.84;;;4.42;63.47
30516;BME280;17297;54.022;10.760;2023-01-28T03:24:16;102855.13;;;4.40;63.30
30516;BME280;17297;54.022;10.760;2023-01-28T03:27:13;102845.66;;;4.36;63.31
30516;BME280;17297;54.022;10.760;2023-01-28T03:30:09;102852.03;;;4.34;63.40
30516;BME280;17297;54.022;10.760;2023-01-28T03:32:55;102857.44;;;4.32;63.53
30516;BME280;17297;54.022;10.760;2023-01-28T03:35:40;102865.44;;;4.32;63.45
30516;BME280;17297;54.022;10.760;2023-01-28T03:38:25;102873.44;;;4.32;63.58
30516;BME280;17297;54.022;10.760;2023-01-28T03:41:07;102879.59;;;4.33;63.42
30516;BME280;17297;54.022;10.760;2023-01-28T03:43:33;102868.94;;;4.33;63.45
30516;BME280;17297;54.022;10.760;2023-01-28T03:46:00;102870.56;;;4.35;63.42
30516;BME280;17297;54.022;10.760;2023-01-28T03:48:27;102871.41;;;4.36;63.49
30516;BME280;17297;54.022;10.760;2023-01-28T03:50:54;102870.47;;;4.37;63.28
30516;BME280;17297;54.022;10.760;2023-01-28T03:53:21;102872.94;;;4.40;63.45
30516;BME280;17297;54.022;10.760;2023-01-28T03:55:50;102870.28;;;4.40;63.49
30516;BME280;17297;54.022;10.760;2023-01-28T03:58:16;102869.31;;;4.41;63.57
30516;BME280;17297;54.022;10.760;2023-01-28T04:00:43;102873.69;;;4.42;63.38
30516;BME280;17297;54.022;10.760;2023-01-28T04:03:12;102876.25;;;4.44;63.48
30516;BME280;17297;54.022;10.760;2023-01-28T04:05:56;102871.56;;;4.47;63.26
30516;BME280;17297;54.022;10.760;2023-01-28T04:08:23;102866.34;;;4.46;63.31
30516;BME280;17297;54.022;10.760;2023-01-28T04:11:04;102869.03;;;4.46;63.43
30516;BME280;17297;54.022;10.760;2023-01-28T04:13:47;102868.91;;;4.47;63.44
30516;BME280;17297;54.022;10.760;2023-01-28T04:16:15;102864.53;;;4.46;63.35
30516;BME280;17297;54.022;10.760;2023-01-28T04:18:41;102865.41;;;4.47;63.45
30516;BME280;17297;54.022;10.760;2023-01-28T04:21:07;102865.28;;;4.48;63.33
30516;BME280;17297;54.022;10.760;2023-01-28T04:23:34;102871.50;;;4.49;63.32
30516;BME280;17297;54.022;10.760;2023-01-28T04:25:59;102873.38;;;4.47;63.15
30516;BME280;17297;54.022;10.760;2023-01-28T04:28:26;102864.44;;;4.48;63.30
30516;BME280;17297;54.022;10.760;2023-01-28T04:30:51;102864.44;;;4.48;63.38
30516;BME280;17297;54.022;10.760;2023-01-28T04:33:37;102867.94;;;4.48;63.18
30516;BME280;17297;54.022;10.760;2023-01-28T04:36:13;102870.72;;;4.47;63.10
30516;BME280;17297;54.022;10.760;2023-01-28T04:38:50;102865.59;;;4.44;63.18
30516;BME280;17297;54.022;10.760;2023-01-28T04:41:42;102858.75;;;4.39;63.14
30516;BME280;17297;54.022;10.760;2023-01-28T04:44:19;102866.00;;;4.37;63.17
30516;BME280;17297;54.022;10.760;2023-01-28T04:47:06;102867.16;;;4.33;63.28
30516;BME280;17297;54.022;10.760;2023-01-28T04:49:47;102873.53;;;4.31;62.98
30516;BME280;17297;54.022;10.760;2023-01-28T04:52:24;102868.41;;;4.28;63.06
30516;BME280;17297;54.022;10.760;2023-01-28T04:55:07;102867.84;;;4.23;62.98
30516;BME280;17297;54.022;10.760;2023-01-28T04:57:33;102874.22;;;4.20;63.15
30516;BME280;17297;54.022;10.760;2023-01-28T04:59:59;102869.09;;;4.17;63.11
30516;BME280;17297;54.022;10.760;2023-01-28T05:02:26;102866.53;;;4.15;62.91
30516;BME280;17297;54.022;10.760;2023-01-28T05:04:51;102859.72;;;4.11;63.07
30516;BME280;17297;54.022;10.760;2023-01-28T05:07:37;102867.03;;;4.08;62.99
30516;BME280;17297;54.022;10.760;2023-01-28T05:10:04;102866.38;;;4.04;63.01
30516;BME280;17297;54.022;10.760;2023-01-28T05:12:29;102863.81;;;4.03;63.05
30516;BME280;17297;54.022;10.760;2023-01-28T05:14:59;102856.97;;;3.99;63.04
30516;BME280;17297;54.022;10.760;2023-01-28T05:17:26;102848.31;;;3.95;63.23
30516;BME280;17297;54.022;10.760;2023-01-28T05:19:51;102849.41;;;3.92;63.08
30516;BME280;17297;54.022;10.760;2023-01-28T05:22:20;102839.88;;;3.88;63.10
30516;BME280;17297;54.022;10.760;2023-01-28T05:25:08;102840.91;;;3.86;63.07
30516;BME280;17297;54.022;10.760;2023-01-28T05:27:34;102837.59;;;3.82;62.98
30516;BME280;17297;54.022;10.760;2023-01-28T05:29:59;102835.97;;;3.80;62.92
30516;BME280;17297;54.022;10.760;2023-01-28T05:32:25;102839.72;;;3.77;63.11
30516;BME280;17297;54.022;10.760;2023-01-28T05:34:51;102842.56;;;3.74;63.13
30516;BME280;17297;54.022;10.760;2023-01-28T05:37:16;102834.66;;;3.73;63.14
30516;BME280;17297;54.022;10.760;2023-01-28T05:39:43;102839.22;;;3.70;62.99
30516;BME280;17297;54.022;10.760;2023-01-28T05:42:08;102843.81;;;3.68;63.19
30516;BME280;17297;54.022;10.760;2023-01-28T05:44:39;102839.53;;;3.66;63.23
30516;BME280;17297;54.022;10.760;2023-01-28T05:47:14;102839.63;;;3.64;63.23
30516;BME280;17297;54.022;10.760;2023-01-28T05:49:50;102830.97;;;3.61;62.92
30516;BME280;17297;54.022;10.760;2023-01-28T05:52:54;102827.56;;;3.59;62.94
30516;BME280;17297;54.022;10.760;2023-01-28T05:55:25;102817.84;;;3.58;62.98
30516;BME280;17297;54.022;10.760;2023-01-28T05:57:51;102815.31;;;3.56;63.24
30516;BME280;17297;54.022;10.760;2023-01-28T06:00:20;102809.22;;;3.54;63.28
30516;BME280;17297;54.022;10.760;2023-01-28T06:02:45;102816.34;;;3.54;63.09
30516;BME280;17297;54.022;10.760;2023-01-28T06:05:13;102820.06;;;3.51;63.06
30516;BME280;17297;54.022;10.760;2023-01-28T06:07:39;102823.56;;;3.52;63.22
30516;BME280;17297;54.022;10.760;2023-01-28T06:10:08;102819.19;;;3.51;63.03
30516;BME280;17297;54.022;10.760;2023-01-28T06:12:33;102809.53;;;3.50;63.04
30516;BME280;17297;54.022;10.760;2023-01-28T06:15:17;102806.94;;;3.48;63.13
30516;BME280;17297;54.022;10.760;2023-01-28T06:18:11;102804.41;;;3.46;63.11
30516;BME280;17297;54.022;10.760;2023-01-28T06:20:36;102814.06;;;3.47;63.11
30516;BME280;17297;54.022;10.760;2023-01-28T06:23:02;102794.69;;;3.45;63.32
30516;BME280;17297;54.022;10.760;2023-01-28T06:25:27;102793.75;;;3.46;63.39
30516;BME280;17297;54.022;10.760;2023-01-28T06:27:55;102799.06;;;3.46;63.18
30516;BME280;17297;54.022;10.760;2023-01-28T06:30:20;102801.81;;;3.45;63.30
30516;BME280;17297;54.022;10.760;2023-01-28T06:32:45;102804.47;;;3.45;63.20
30516;BME280;17297;54.022;10.760;2023-01-28T06:35:11;102801.81;;;3.45;63.26
30516;BME280;17297;54.022;10.760;2023-01-28T06:37:36;102819.59;;;3.44;63.14
30516;BME280;17297;54.022;10.760;2023-01-28T06:40:02;102816.06;;;3.44;63.09
30516;BME280;17297;54.022;10.760;2023-01-28T06:42:27;102816.06;;;3.44;63.20
30516;BME280;17297;54.022;10.760;2023-01-28T06:44:53;102825.03;;;3.43;63.27
30516;BME280;17297;54.022;10.760;2023-01-28T06:47:18;102839.25;;;3.42;63.15
30516;BME280;17297;54.022;10.760;2023-01-28T06:49:44;102846.38;;;3.41;63.31
30516;BME280;17297;54.022;10.760;2023-01-28T06:52:09;102847.34;;;3.40;63.12
30516;BME280;17297;54.022;10.760;2023-01-28T06:54:35;102864.25;;;3.39;63.18
30516;BME280;17297;54.022;10.760;2023-01-28T06:57:00;102865.19;;;3.38;63.00
30516;BME280;17297;54.022;10.760;2023-01-28T06:59:26;102861.69;;;3.38;63.24
30516;BME280;17297;54.022;10.760;2023-01-28T07:01:51;102876.88;;;3.36;63.16
30516;BME280;17297;54.022;10.760;2023-01-28T07:04:16;102878.81;;;3.34;63.26
30516;BME280;17297;54.022;10.760;2023-01-28T07:06:42;102869.94;;;3.33;63.19
30516;BME280;17297;54.022;10.760;2023-01-28T07:09:07;102873.56;;;3.32;62.96
30516;BME280;17297;54.022;10.760;2023-01-28T07:11:32;102880.75;;;3.30;63.25
30516;BME280;17297;54.022;10.760;2023-01-28T07:13:58;102876.41;;;3.29;63.06
30516;BME280;17297;54.022;10.760;2023-01-28T07:16:23;102880.88;;;3.29;63.15
30516;BME280;17297;54.022;10.760;2023-01-28T07:18:49;102879.19;;;3.28;63.34
30516;BME280;17297;54.022;10.760;2023-01-28T07:21:15;102881.91;;;3.26;63.16
30516;BME280;17297;54.022;10.760;2023-01-28T07:23:40;102878.31;;;3.27;63.23
30516;BME280;17297;54.022;10.760;2023-01-28T07:26:06;102876.59;;;3.26;63.09
30516;BME280;17297;54.022;10.760;2023-01-28T07:28:31;102882.75;;;3.27;63.02
30516;BME280;17297;54.022;10.760;2023-01-28T07:30:57;102874.78;;;3.27;63.12
30516;BME280;17297;54.022;10.760;2023-01-28T07:33:22;102861.47;;;3.27;63.31
30516;BME280;17297;54.022;10.760;2023-01-28T07:35:48;102859.69;;;3.27;63.13
30516;BME280;17297;54.022;10.760;2023-01-28T07:38:13;102873.84;;;3.28;63.31
30516;BME280;17297;54.022;10.760;2023-01-28T07:40:39;102874.72;;;3.28;63.09
30516;BME280;17297;54.022;10.760;2023-01-28T07:43:07;102871.09;;;3.29;63.05
30516;BME280;17297;54.022;10.760;2023-01-28T07:45:38;102873.84;;;3.42;63.38
30516;BME280;17297;54.022;10.760;2023-01-28T07:48:05;102872.53;;;3.49;63.04
30516;BME280;17297;54.022;10.760;2023-01-28T07:50:33;102885.66;;;3.52;63.05
30516;BME280;17297;54.022;10.760;2023-01-28T07:53:03;102888.31;;;3.52;62.90
30516;BME280;17297;54.022;10.760;2023-01-28T07:55:28;102890.78;;;3.55;62.92
30516;BME280;17297;54.022;10.760;2023-01-28T07:57:56;102904.75;;;3.59;63.02
30516;BME280;17297;54.022;10.760;2023-01-28T08:00:23;102892.31;;;3.59;62.77
30516;BME280;17297;54.022;10.760;2023-01-28T08:02:49;102894.13;;;3.59;62.90
30516;BME280;17297;54.022;10.760;2023-01-28T08:05:19;102890.59;;;3.58;62.94
30516;BME280;17297;54.022;10.760;2023-01-28T08:07:46;102893.25;;;3.58;62.85
30516;BME280;17297;54.022;10.760;2023-01-28T08:10:13;102884.97;;;3.63;62.94
30516;BME280;17297;54.022;10.760;2023-01-28T08:12:39;102890.75;;;3.69;62.97
30516;BME280;17297;54.022;10.760;2023-01-28T08:15:05;102902.94;;;3.74;62.94
30516;BME280;17297;54.022;10.760;2023-01-28T08:17:31;102903.63;;;3.77;63.06
30516;BME280;17297;54.022;10.760;2023-01-28T08:19:56;102909.09;;;3.88;63.19
30516;BME280;17297;54.022;10.760;2023-01-28T08:22:24;102900.06;;;4.05;63.24
30516;BME280;17297;54.022;10.760;2023-01-28T08:24:49;102899.53;;;4.27;63.14
30516;BME280;17297;54.022;10.760;2023-01-28T08:27:15;102905.16;;;4.50;62.71
30516;BME280;17297;54.022;10.760;2023-01-28T08:29:40;102895.34;;;4.77;62.78
30516;BME280;17297;54.022;10.760;2023-01-28T08:32:05;102900.88;;;5.14;62.73
30516;BME280;17297;54.022;10.760;2023-01-28T08:34:31;102892.31;;;5.47;62.65
30516;BME280;17297;54.022;10.760;2023-01-28T08:36:56;102907.69;;;5.69;62.14
30516;BME280;17297;54.022;10.760;2023-01-28T08:39:22;102911.88;;;5.73;61.78
30516;BME280;17297;54.022;10.760;2023-01-28T08:41:48;102916.53;;;5.70;61.45
30516;BME280;17297;54.022;10.760;2023-01-28T08:44:13;102909.94;;;5.63;61.49
30516;BME280;17297;54.022;10.760;2023-01-28T08:46:38;102925.66;;;5.54;61.35
30516;BME280;17297;54.022;10.760;2023-01-28T08:49:04;102938.53;;;5.48;61.36
30516;BME280;17297;54.022;10.760;2023-01-28T08:51:29;102933.63;;;5.42;61.61
30516;BME280;17297;54.022;10.760;2023-01-28T08:53:54;102938.13;;;5.41;61.48
30516;BME280;17297;54.022;10.760;2023-01-28T08:56:20;102927.66;;;5.38;61.59
30516;BME280;17297;54.022;10.760;2023-01-28T08:58:45;102925.00;;;5.38;61.80
30516;BME280;17297;54.022;10.760;2023-01-28T09:01:11;102936.50;;;5.39;61.68
30516;BME280;17297;54.022;10.760;2023-01-28T09:03:36;102940.16;;;5.38;61.72
30516;BME280;17297;54.022;10.760;2023-01-28T09:06:03;102946.47;;;5.37;61.49
30516;BME280;17297;54.022;10.760;2023-01-28T09:08:28;102942.19;;;5.34;61.56
30516;BME280;17297;54.022;10.760;2023-01-28T09:10:58;102935.88;;;5.35;61.73
30516;BME280;17297;54.022;10.760;2023-01-28T09:13:24;102932.47;;;5.33;61.64
30516;BME280;17297;54.022;10.760;2023-01-28T09:15:50;102944.22;;;5.30;61.50
30516;BME280;17297;54.022;10.760;2023-01-28T09:18:16;102954.25;;;5.27;61.54
30516;BME280;17297;54.022;10.760;2023-01-28T09:20:41;102970.47;;;5.24;61.58
30516;BME280;17297;54.022;10.760;2023-01-28T09:23:07;102962.47;;;5.24;61.55
30516;BME280;17297;54.022;10.760;2023-01-28T09:25:33;102948.34;;;5.22;61.48
30516;BME280;17297;54.022;10.760;2023-01-28T09:28:00;102947.50;;;5.21;61.63
30516;BME280;17297;54.022;10.760;2023-01-28T09:30:27;102945.91;;;5.19;61.50
30516;BME280;17297;54.022;10.760;2023-01-28T09:32:53;102945.91;;;5.19;61.39
30516;BME280;17297;54.022;10.760;2023-01-28T09:35:19;102951.22;;;5.19;61.39
30516;BME280;17297;54.022;10.760;2023-01-28T09:37:45;102938.66;;;5.21;61.51
30516;BME280;17297;54.022;10.760;2023-01-28T09:40:28;102935.88;;;5.22;61.51
30516;BME280;17297;54.022;10.760;2023-01-28T09:43:04;102932.25;;;5.23;61.47
30516;BME280;17297;54.022;10.760;2023-01-28T09:45:51;102925.09;;;5.24;61.53
30516;BME280;17297;54.022;10.760;2023-01-28T09:48:23;102926.81;;;5.25;61.51
30516;BME280;17297;54.022;10.760;2023-01-28T09:50:51;102916.97;;;5.25;61.42
30516;BME280;17297;54.022;10.760;2023-01-28T09:53:27;102916.88;;;5.27;61.44
30516;BME280;17297;54.022;10.760;2023-01-28T09:55:56;102913.13;;;5.29;61.50
30516;BME280;17297;54.022;10.760;2023-01-28T09:58:24;102907.78;;;5.29;61.56
30516;BME280;17297;54.022;10.760;2023-01-28T10:04:04;102885.28;;;5.33;61.50
30516;BME280;17297;54.022;10.760;2023-01-28T10:12:07;102900.53;;;5.44;61.33
30516;BME280;17297;54.022;10.760;2023-01-28T10:14:44;102892.31;;;5.47;61.24
30516;BME280;17297;54.022;10.760;2023-01-28T10:17:38;102889.44;;;5.50;61.40
30516;BME280;17297;54.022;10.760;2023-01-28T10:25:21;102891.88;;;5.53;61.06
30516;BME280;17297;54.022;10.760;2023-01-28T10:27:48;102894.56;;;5.53;61.00
30516;BME280;17297;54.022;10.760;2023-01-28T10:30:23;102880.47;;;5.51;61.01
30516;BME280;17297;54.022;10.760;2023-01-28T10:32:58;102872.47;;;5.51;60.85
30516;BME280;17297;54.022;10.760;2023-01-28T10:35:26;102861.03;;;5.49;60.93
30516;BME280;17297;54.022;10.760;2023-01-28T10:37:59;102850.22;;;5.51;61.00
30516;BME280;17297;54.022;10.760;2023-01-28T10:40:26;102857.31;;;5.52;60.84
30516;BME280;17297;54.022;10.760;2023-01-28T10:42:51;102872.25;;;5.54;61.01
30516;BME280;17297;54.022;10.760;2023-01-28T10:45:22;102865.09;;;5.55;60.97
30516;BME280;17297;54.022;10.760;2023-01-28T10:47:57;102867.78;;;5.55;60.87
30516;BME280;17297;54.022;10.760;2023-01-28T10:50:26;102843.81;;;5.53;60.86
30516;BME280;17297;54.022;10.760;2023-01-28T10:52:54;102844.03;;;5.50;60.58
30516;BME280;17297;54.022;10.760;2023-01-28T10:55:19;102832.75;;;5.47;60.65
30516;BME280;17297;54.022;10.760;2023-01-28T10:57:45;102826.78;;;5.43;60.57
30516;BME280;17297;54.022;10.760;2023-01-28T11:00:23;102832.41;;;5.39;60.75
30516;BME280;17297;54.022;10.760;2023-01-28T11:02:49;102837.88;;;5.37;60.78
30516;BME280;17297;54.022;10.760;2023-01-28T11:05:23;102827.19;;;5.37;60.82
30516;BME280;17297;54.022;10.760;2023-01-28T11:08:14;102813.72;;;5.39;60.79
30516;BME280;17297;54.022;10.760;2023-01-28T11:10:41;102806.25;;;5.44;60.95
30516;BME280;17297;54.022;10.760;2023-01-28T11:13:21;102807.75;;;5.48;61.00
30516;BME280;17297;54.022;10.760;2023-01-28T11:18:37;102778.34;;;5.61;60.92
30516;BME280;17297;54.022;10.760;2023-01-28T11:21:06;102765.66;;;5.64;60.84
30516;BME280;17297;54.022;10.760;2023-01-28T11:23:54;102762.75;;;5.67;60.77
30516;BME280;17297;54.022;10.760;2023-01-28T11:26:24;102758.25;;;5.68;60.59
30516;BME280;17297;54.022;10.760;2023-01-28T11:28:50;102768.94;;;5.68;60.53
30516;BME280;17297;54.022;10.760;2023-01-28T11:31:18;102761.03;;;5.66;60.43
30516;BME280;17297;54.022;10.760;2023-01-28T11:33:51;102772.56;;;5.67;60.64
30516;BME280;17297;54.022;10.760;2023-01-28T11:36:23;102754.75;;;5.67;60.62
30516;BME280;17297;54.022;10.760;2023-01-28T11:38:54;102763.47;;;5.69;60.62
30516;BME280;17297;54.022;10.760;2023-01-28T11:41:27;102758.88;;;5.71;60.66
30516;BME280;17297;54.022;10.760;2023-01-28T11:43:53;102748.81;;;5.75;60.76
30516;BME280;17297;54.022;10.760;2023-01-28T11:51:45;102758.75;;;5.86;60.77
30516;BME280;17297;54.022;10.760;2023-01-28T12:02:48;102755.81;;;6.01;60.78
30516;BME280;17297;54.022;10.760;2023-01-28T12:08:08;102756.44;;;6.05;60.81
30516;BME280;17297;54.022;10.760;2023-01-28T12:13:28;102759.09;;;6.05;60.53
30516;BME280;17297;54.022;10.760;2023-01-28T12:19:05;102749.50;;;6.03;60.51
30516;BME280;17297;54.022;10.760;2023-01-28T12:29:55;102736.22;;;6.01;60.55
30516;BME280;17297;54.022;10.760;2023-01-28T12:32:35;102722.03;;;6.00;60.57
30516;BME280;17297;54.022;10.760;2023-01-28T12:46:01;102692.75;;;5.99;60.74
30516;BME280;17297;54.022;10.760;2023-01-28T12:48:33;102687.53;;;5.97;60.58
30516;BME280;17297;54.022;10.760;2023-01-28T12:51:03;102690.31;;;5.96;60.69
30516;BME280;17297;54.022;10.760;2023-01-28T12:53:49;102689.47;;;5.95;60.62
30516;BME280;17297;54.022;10.760;2023-01-28T12:58:53;102689.91;;;5.89;60.56
30516;BME280;17297;54.022;10.760;2023-01-28T13:01:25;102695.56;;;5.85;60.62
30516;BME280;17297;54.022;10.760;2023-01-28T13:04:00;102701.28;;;5.80;60.44
30516;BME280;17297;54.022;10.760;2023-01-28T13:06:37;102703.19;;;5.78;60.47
30516;BME280;17297;54.022;10.760;2023-01-28T13:09:19;102710.47;;;5.76;60.59
30516;BME280;17297;54.022;10.760;2023-01-28T13:11:48;102708.91;;;5.73;60.65
30516;BME280;17297;54.022;10.760;2023-01-28T13:14:15;102700.88;;;5.73;60.78
30516;BME280;17297;54.022;10.760;2023-01-28T13:16:41;102692.00;;;5.73;60.68
30516;BME280;17297;54.022;10.760;2023-01-28T13:19:21;102709.84;;;5.72;60.80
30516;BME280;17297;54.022;10.760;2023-01-28T13:21:47;102714.22;;;5.73;60.82
30516;BME280;17297;54.022;10.760;2023-01-28T13:29:26;102722.88;;;5.77;60.86
30516;BME280;17297;54.022;10.760;2023-01-28T13:31:54;102710.22;;;5.79;60.75
30516;BME280;17297;54.022;10.760;2023-01-28T13:34:38;102725.19;;;5.82;60.95
30516;BME280;17297;54.022;10.760;2023-01-28T13:39:58;102719.50;;;5.86;60.83
30516;BME280;17297;54.022;10.760;2023-01-28T13:42:25;102724.72;;;5.88;60.84
30516;BME280;17297;54.022;10.760;2023-01-28T13:44:51;102737.84;;;5.91;60.99
30516;BME280;17297;54.022;10.760;2023-01-28T13:47:24;102735.09;;;5.92;60.84
30516;BME280;17297;54.022;10.760;2023-01-28T13:50:14;102730.50;;;5.94;60.97
30516;BME280;17297;54.022;10.760;2023-01-28T13:52:48;102734.91;;;5.95;60.87
30516;BME280;17297;54.022;10.760;2023-01-28T13:55:19;102727.81;;;5.94;61.00
30516;BME280;17297;54.022;10.760;2023-01-28T14:09:07;102705.69;;;5.92;60.94
30516;BME280;17297;54.022;10.760;2023-01-28T14:12:02;102690.63;;;5.91;61.10
30516;BME280;17297;54.022;10.760;2023-01-28T14:20:36;102692.44;;;5.91;61.12
30516;BME280;17297;54.022;10.760;2023-01-28T14:23:12;102696.94;;;5.90;60.95
30516;BME280;17297;54.022;10.760;2023-01-28T14:25:56;102692.44;;;5.91;61.19
30516;BME280;17297;54.022;10.760;2023-01-28T14:28:47;102684.44;;;5.91;61.02
30516;BME280;17297;54.022;10.760;2023-01-28T14:31:25;102709.31;;;5.91;61.02
30516;BME280;17297;54.022;10.760;2023-01-28T14:33:52;102708.38;;;5.92;61.07
30516;BME280;17297;54.022;10.760;2023-01-28T14:36:17;102719.16;;;5.91;61.21
30516;BME280;17297;54.022;10.760;2023-01-28T14:38:43;102719.28;;;5.89;61.20
30516;BME280;17297;54.022;10.760;2023-01-28T14:41:21;102711.28;;;5.89;61.18
30516;BME280;17297;54.022;10.760;2023-01-28T14:43:47;102725.47;;;5.90;61.16
30516;BME280;17297;54.022;10.760;2023-01-28T14:46:51;102721.97;;;5.89;61.40
30516;BME280;17297;54.022;10.760;2023-01-28T14:52:37;102718.00;;;5.82;61.38
30516;BME280;17297;54.022;10.760;2023-01-28T14:57:52;102720.06;;;5.78;61.24
30516;BME280;17297;54.022;10.760;2023-01-28T15:00:30;102722.88;;;5.77;61.31
30516;BME280;17297;54.022;10.760;2023-01-28T15:02:56;102722.97;;;5.75;61.21